createdAt,value
2019-05-25T00:00:57.812Z,13.08
2019-05-25T00:03:27.524Z,13.72
2019-05-25T00:05:56.589Z,12.73
2019-05-25T00:08:25.564Z,12.00
2019-05-25T00:10:55.771Z,11.95
2019-05-25T00:13:24.844Z,12.43
2019-05-25T00:15:54.613Z,12.65
2019-05-25T00:18:23.710Z,12.85
2019-05-25T00:20:54.248Z,13.00
2019-05-25T00:23:23.300Z,11.68
2019-05-25T00:25:52.429Z,13.55
2019-05-25T00:28:22.051Z,13.35
2019-05-25T00:30:51.145Z,12.85
2019-05-25T00:33:20.576Z,12.98
2019-05-25T00:35:49.563Z,13.50
2019-05-25T00:38:18.965Z,11.93
2019-05-25T00:40:47.994Z,12.88
2019-05-25T00:43:17.013Z,13.10
2019-05-25T00:45:45.976Z,12.47
2019-05-25T00:48:15.002Z,12.18
2019-05-25T00:50:44.517Z,12.73
2019-05-25T00:53:15.022Z,12.85
2019-05-25T00:55:44.991Z,12.95
2019-05-25T00:58:15.306Z,12.93
2019-05-25T01:00:44.970Z,13.05
2019-05-25T01:03:14.669Z,13.85
2019-05-25T01:05:43.652Z,13.32
2019-05-25T01:08:12.651Z,13.80
2019-05-25T01:10:42.343Z,13.60
2019-05-25T01:13:12.462Z,12.88
2019-05-25T01:15:42.443Z,13.50
2019-05-25T01:18:11.567Z,12.80
2019-05-25T01:20:40.581Z,14.18
2019-05-25T01:23:09.613Z,14.28
2019-05-25T01:25:38.785Z,13.95
2019-05-25T01:28:07.736Z,14.33
2019-05-25T01:30:36.726Z,12.10
2019-05-25T01:33:05.669Z,14.68
2019-05-25T01:35:35.206Z,13.05
2019-05-25T01:38:05.065Z,14.85
2019-05-25T01:40:34.029Z,12.90
2019-05-25T01:43:03.032Z,12.23
2019-05-25T01:45:32.125Z,12.33
2019-05-25T01:48:01.217Z,11.80
2019-05-25T01:50:30.240Z,9.85
2019-05-25T01:52:59.266Z,9.28
2019-05-25T01:55:28.182Z,9.13
2019-05-25T01:57:57.148Z,11.57
2019-05-25T02:00:26.797Z,14.07
2019-05-25T02:02:55.806Z,8.80
2019-05-25T02:05:24.798Z,12.55
2019-05-25T02:07:53.862Z,13.75
2019-05-25T02:10:23.249Z,12.53
2019-05-25T02:12:52.214Z,14.65
2019-05-25T02:15:21.324Z,14.15
2019-05-25T02:17:50.357Z,14.20
2019-05-25T02:20:20.252Z,14.35
2019-05-25T02:22:49.748Z,15.88
2019-05-25T02:25:19.146Z,16.27
2019-05-25T02:27:48.265Z,17.48
2019-05-25T02:30:20.429Z,15.05
2019-05-25T02:32:49.529Z,17.20
2019-05-25T02:35:24.294Z,16.65
2019-05-25T02:37:56.905Z,17.92
2019-05-25T02:40:26.000Z,17.73
2019-05-25T02:42:55.659Z,17.27
2019-05-25T02:45:24.609Z,17.45
2019-05-25T02:47:53.802Z,16.65
2019-05-25T02:50:23.800Z,16.93
2019-05-25T02:52:52.821Z,17.25
2019-05-25T02:55:33.627Z,17.75
2019-05-25T02:57:52.603Z,17.15
2019-05-25T03:00:32.789Z,17.70
2019-05-25T03:03:02.648Z,17.98
2019-05-25T03:05:31.702Z,18.23
2019-05-25T03:08:02.470Z,18.77
2019-05-25T03:10:32.685Z,18.52
2019-05-25T03:13:04.217Z,18.37
2019-05-25T03:15:33.387Z,17.62
2019-05-25T03:18:02.349Z,17.48
2019-05-25T03:20:36.222Z,18.52
2019-05-25T03:23:05.207Z,18.57
2019-05-25T03:25:48.597Z,18.48
2019-05-25T03:28:04.905Z,17.73
2019-05-25T03:30:39.272Z,17.55
2019-05-25T03:33:08.373Z,18.37
2019-05-25T03:35:39.192Z,18.95
2019-05-25T03:38:09.687Z,18.50
2019-05-25T03:40:41.525Z,17.40
2019-05-25T03:43:13.631Z,17.62
2019-05-25T03:45:44.077Z,12.25
2019-05-25T03:48:16.121Z,14.85
2019-05-25T03:50:47.646Z,16.73
2019-05-25T03:53:18.360Z,18.82
2019-05-25T03:56:05.192Z,19.10
2019-05-25T03:58:18.934Z,20.43
2019-05-25T04:00:47.947Z,20.95
2019-05-25T04:03:17.019Z,19.23
2019-05-25T04:05:46.959Z,21.42
2019-05-25T04:08:15.929Z,20.77
2019-05-25T04:10:44.909Z,22.07
2019-05-25T04:13:16.001Z,22.82
2019-05-25T04:15:44.830Z,22.93
2019-05-25T04:18:13.914Z,22.67
2019-05-25T04:20:43.050Z,23.00
2019-05-25T04:23:12.062Z,21.93
2019-05-25T04:25:41.124Z,23.35
2019-05-25T04:28:10.054Z,23.90
2019-05-25T04:30:39.040Z,23.50
2019-05-25T04:33:08.146Z,24.47
2019-05-25T04:35:38.781Z,23.67
2019-05-25T04:38:07.779Z,24.90
2019-05-25T04:40:38.220Z,25.37
2019-05-25T04:43:07.251Z,25.90
2019-05-25T04:45:38.647Z,24.87
2019-05-25T04:48:07.694Z,25.60
2019-05-25T04:50:38.319Z,25.27
2019-05-25T04:53:07.338Z,23.32
2019-05-25T04:55:37.660Z,22.98
2019-05-25T04:58:11.364Z,25.80
2019-05-25T05:00:41.017Z,24.27
2019-05-25T05:03:09.961Z,25.85
2019-05-25T05:05:38.908Z,25.12
2019-05-25T05:08:07.917Z,25.70
2019-05-25T05:10:37.903Z,26.35
2019-05-25T05:13:06.915Z,26.95
2019-05-25T05:15:35.927Z,28.35
2019-05-25T05:18:04.847Z,25.80
2019-05-25T05:20:33.799Z,27.22
2019-05-25T05:23:02.814Z,28.32
2019-05-25T05:25:31.858Z,28.52
2019-05-25T05:28:00.907Z,28.87
2019-05-25T06:04:21.274Z,30.02
2019-05-25T06:07:10.737Z,29.20
2019-05-25T06:12:41.068Z,25.85
2019-05-25T06:15:10.894Z,25.43
2019-05-25T06:18:11.620Z,20.05
2019-05-25T06:33:36.376Z,26.25
2019-05-25T06:48:21.848Z,25.00
2019-05-25T07:17:31.505Z,10.82
2019-05-25T10:08:37.952Z,1.70
2019-05-25T10:34:59.026Z,2.08
2019-05-25T10:40:45.518Z,1.90
2019-05-25T12:10:30.713Z,5.67
2019-05-25T13:28:08.171Z,7.85
2019-05-25T13:45:09.412Z,8.58
2019-05-25T13:53:36.534Z,8.00
2019-05-25T13:56:07.971Z,8.80
2019-05-25T13:58:39.256Z,9.10
2019-05-25T14:04:02.633Z,9.40
2019-05-25T14:09:29.063Z,6.90
2019-05-25T14:14:59.053Z,8.95
2019-05-25T14:17:50.437Z,7.95
2019-05-25T14:20:18.749Z,6.72
2019-05-25T14:23:07.478Z,6.72
2019-05-25T14:25:36.525Z,5.25
2019-05-25T14:28:07.708Z,6.08
2019-05-25T14:30:47.469Z,6.12
2019-05-25T14:36:15.324Z,6.50
2019-05-25T14:38:47.463Z,6.03
2019-05-25T14:41:16.491Z,6.42
2019-05-25T14:43:50.775Z,6.22
2019-05-25T14:46:27.846Z,5.95
2019-05-25T14:49:01.374Z,5.62
2019-05-25T14:51:37.258Z,4.85
2019-05-25T14:54:06.706Z,5.92
2019-05-25T14:56:38.644Z,5.47
2019-05-25T14:59:07.548Z,4.95
2019-05-25T15:01:36.519Z,4.05
2019-05-25T15:04:05.645Z,5.65
2019-05-25T15:06:34.597Z,6.30
2019-05-25T15:09:05.480Z,6.75
2019-05-25T15:11:34.336Z,6.45
2019-05-25T15:14:03.197Z,5.65
2019-05-25T15:16:34.894Z,7.47
2019-05-25T15:19:03.723Z,6.45
2019-05-25T15:21:32.608Z,8.03
2019-05-25T15:24:02.959Z,7.65
2019-05-25T15:26:31.848Z,6.72
2019-05-25T15:29:00.538Z,7.17
2019-05-25T15:31:29.413Z,6.75
2019-05-25T15:33:58.319Z,6.50
2019-05-25T15:36:27.199Z,7.85
2019-05-25T15:39:09.453Z,7.03
2019-05-25T15:41:38.402Z,7.80
2019-05-25T15:44:07.306Z,7.00
2019-05-25T15:46:36.083Z,8.23
2019-05-25T15:49:05.374Z,8.08
2019-05-25T15:51:34.268Z,6.78
2019-05-25T15:54:03.170Z,9.93
2019-05-25T15:56:32.061Z,8.80
2019-05-25T15:59:01.807Z,7.03
2019-05-25T16:01:30.772Z,8.30
2019-05-25T16:03:59.680Z,8.45
2019-05-25T16:06:28.496Z,8.68
2019-05-25T16:08:57.340Z,7.67
2019-05-25T16:11:26.283Z,7.20
2019-05-25T16:13:55.145Z,8.08
2019-05-25T16:16:29.586Z,8.43
2019-05-25T16:18:55.238Z,5.08
2019-05-25T16:21:24.027Z,6.05
2019-05-25T16:23:52.777Z,5.42
2019-05-25T16:26:21.634Z,5.40
2019-05-25T16:28:50.367Z,4.97
2019-05-25T16:31:19.332Z,4.85
2019-05-25T16:33:48.169Z,5.15
2019-05-25T16:36:17.489Z,4.60
2019-05-25T16:38:59.010Z,4.97
2019-05-25T16:41:28.695Z,4.65
2019-05-25T16:44:00.850Z,5.30
2019-05-25T16:46:32.592Z,4.35
2019-05-25T16:49:05.908Z,4.12
2019-05-25T16:51:37.801Z,4.28
2019-05-25T16:54:16.570Z,3.55
2019-05-25T16:56:55.239Z,3.40
2019-05-25T17:05:39.502Z,3.25
2019-05-25T18:40:03.231Z,9.10
2019-05-25T19:10:23.409Z,9.00
2019-05-25T19:13:11.760Z,8.80
2019-05-25T19:15:58.618Z,7.12
2019-05-25T20:57:33.909Z,5.08
2019-05-25T21:00:03.475Z,5.47
2019-05-25T21:02:32.463Z,5.42
2019-05-25T21:05:01.518Z,5.20
2019-05-25T21:07:33.392Z,5.40
2019-05-25T21:10:02.456Z,6.00
2019-05-25T21:12:31.557Z,5.60
2019-05-25T21:15:00.576Z,4.80
2019-05-25T21:17:32.414Z,4.65
2019-05-25T21:20:06.481Z,5.80
2019-05-25T21:22:39.621Z,4.75
2019-05-25T21:25:16.800Z,6.33
2019-05-25T21:27:49.415Z,6.10
2019-05-25T21:30:25.880Z,5.95
2019-05-25T21:32:56.528Z,5.80
2019-05-25T21:35:41.365Z,4.97
2019-05-25T21:38:07.356Z,6.60
2019-05-25T21:40:46.594Z,5.87
2019-05-25T21:43:15.190Z,5.90
2019-05-25T21:45:46.162Z,6.55
2019-05-25T21:48:19.160Z,5.08
2019-05-25T21:50:50.125Z,6.12
2019-05-25T21:53:20.804Z,5.47
2019-05-25T21:55:50.040Z,5.35
2019-05-25T21:58:20.714Z,7.22
2019-05-25T22:00:51.426Z,6.37
2019-05-25T22:03:28.129Z,5.55
2019-05-25T22:06:23.270Z,4.65
2019-05-25T22:08:41.045Z,6.45
2019-05-25T22:11:12.122Z,6.60
2019-05-25T22:13:49.990Z,6.03
2019-05-25T22:16:27.702Z,6.33
2019-05-25T22:21:49.729Z,6.72
2019-05-25T22:24:18.913Z,6.08
2019-05-25T22:26:50.928Z,6.03
2019-05-25T22:29:20.070Z,6.12
2019-05-25T22:31:49.216Z,6.33
2019-05-25T22:34:20.478Z,5.87
2019-05-25T22:36:49.615Z,5.78
2019-05-25T22:39:21.746Z,5.03
2019-05-25T22:41:53.800Z,6.03
2019-05-25T22:44:22.849Z,4.47
2019-05-25T22:46:56.500Z,5.20
2019-05-25T22:49:30.170Z,3.92
2019-05-25T22:52:00.860Z,4.10
2019-05-25T22:54:29.998Z,4.00
2019-05-25T22:56:59.142Z,4.10
2019-05-25T22:59:29.821Z,4.30
2019-05-25T23:02:01.114Z,4.17
2019-05-25T23:04:49.712Z,4.83
2019-05-25T23:07:18.769Z,7.12
2019-05-25T23:09:52.826Z,7.70
2019-05-25T23:12:24.232Z,8.40
2019-05-25T23:14:53.377Z,8.95
2019-05-25T23:17:24.029Z,8.50
2019-05-25T23:19:53.588Z,9.95
2019-05-25T23:22:23.130Z,10.68
2019-05-25T23:24:52.248Z,11.50
2019-05-25T23:27:24.395Z,11.57
2019-05-25T23:29:55.830Z,11.80
2019-05-25T23:32:27.251Z,11.45
2019-05-25T23:34:56.334Z,11.63
2019-05-25T23:37:25.347Z,12.28
2019-05-25T23:39:54.282Z,11.60
2019-05-25T23:42:23.319Z,11.88
2019-05-25T23:44:52.417Z,11.08
2019-05-25T23:47:21.511Z,10.85
2019-05-25T23:49:55.198Z,9.70
2019-05-25T23:52:26.243Z,10.55
2019-05-25T23:54:54.913Z,11.18
2019-05-25T23:57:23.912Z,11.55
2019-05-25T23:59:55.743Z,11.78
